In Rescue
 
Open Full Screen Window  High Contrast Mode
Wind Gusting 00 knots
08
June 20, 2021 10:55 AM EDT
Weather Information
Wind Direction
  200 °
Wind Speed
  08 kt (9 mph)
Wind Gust
  00 kt (0 mph)
Altimeter
29.85 in
Visibility
10 SM
Temperature
27° C
81° F
Dewpoint
21° C
70° F
Humidity
70%
1hr Rain Fall
00.01 in.
24hr Rain Fall
00.52 in.
Sky Condition
Clear
VFR

METAR KI69 201455Z AUTO 20008KT 10SM CLR 27/21 A2985 RMK AO2 P0001 60003 T02660208

FAA Disclaimer: The data displayed is for advisory purposes only and is not to be used for flight planning or operations.